57.9°F
Current conditions from King Hill
Updated every 5 minutes
 
  Thursday August 28, 2014

Station Historical Data
Daily Summary for October 25, 2011 Units:  Both    English   Metric
« Previous Day
Next Day »
Daily Weekly Monthly Yearly Custom
  High: Low: Average:
Temperature: 48.7 °F /  9.3 °C 38.2 °F /  3.4 °C 44.6 °F /  7 °C
Dew Point: 44.0 °F /  6.7 °C 31.4 °F /  -0.3 °C 37.1 °F /  2.8 °C
Humidity: 93% 59% 75%
Wind Speed: 13.0mph /  20.9km/h - 4.4mph /  7.1km/h
Wind Gust: 21.0mph /  33.8km/h - -
Wind- - West
Pressure: 29.98 in /  1015.1 hPa 29.82 in /  1009.7 hPa -
Precipitation: 0.00 in /  0 mm    
Historical Graphs
 
 
Tabular Data for October 25, 2011
Time Temperature Dew Point Pressure Wind Wind Speed Wind Gust Humidity Daily Rainfall
00:00 45.9 °F /  7.7 °C 44.0 °F /  6.7 °C 29.85in /  1010.7hPa SSW 5.0mph /  8km/h 9.0mph /  14.5km/h 93% 0.35in /  8.9mm
00:05 45.8 °F /  7.7 °C 43.9 °F /  6.6 °C 29.85in /  1010.7hPa SSW 3.0mph /  4.8km/h 9.0mph /  14.5km/h 93% 0.00in /  0mm
00:10 45.7 °F /  7.6 °C 43.8 °F /  6.6 °C 29.85in /  1010.7hPa SW 5.0mph /  8km/h 8.0mph /  12.9km/h 93% 0.00in /  0mm
00:15 45.6 °F /  7.6 °C 43.7 °F /  6.5 °C 29.85in /  1010.7hPa SW 6.0mph /  9.7km/h 10.0mph /  16.1km/h 93% 0.00in /  0mm
00:20 45.5 °F /  7.5 °C 43.6 °F /  6.4 °C 29.84in /  1010.4hPa SSW 4.0mph /  6.4km/h 10.0mph /  16.1km/h 93% 0.00in /  0mm
00:25 45.4 °F /  7.4 °C 43.5 °F /  6.4 °C 29.84in /  1010.4hPa SSW 3.0mph /  4.8km/h 7.0mph /  11.3km/h 93% 0.00in /  0mm
00:30 45.3 °F /  7.4 °C 43.4 °F /  6.3 °C 29.84in /  1010.4hPa SW 5.0mph /  8km/h 7.0mph /  11.3km/h 93% 0.00in /  0mm
00:35 45.2 °F /  7.3 °C 43.3 °F /  6.3 °C 29.84in /  1010.4hPa SW 1.0mph /  1.6km/h 7.0mph /  11.3km/h 93% 0.00in /  0mm
00:40 45.1 °F /  7.3 °C 43.2 °F /  6.2 °C 29.84in /  1010.4hPa SSW 1.0mph /  1.6km/h 7.0mph /  11.3km/h 93% 0.00in /  0mm
00:45 45.0 °F /  7.2 °C 43.1 °F /  6.2 °C 29.84in /  1010.4hPa Calm   4.0mph /  6.4km/h 93% 0.00in /  0mm
00:50 44.9 °F /  7.2 °C 43.0 °F /  6.1 °C 29.84in /  1010.4hPa Calm   4.0mph /  6.4km/h 93% 0.00in /  0mm
00:55 44.7 °F /  7.1 °C 42.8 °F /  6 °C 29.85in /  1010.7hPa Calm     93% 0.00in /  0mm
01:00 44.6 °F /  7 °C 42.7 °F /  5.9 °C 29.85in /  1010.7hPa Calm   1.0mph /  1.6km/h 93% 0.00in /  0mm
01:05 44.3 °F /  6.8 °C 42.4 °F /  5.8 °C 29.85in /  1010.7hPa Calm   1.0mph /  1.6km/h 93% 0.00in /  0mm
01:10 44.0 °F /  6.7 °C 42.1 °F /  5.6 °C 29.85in /  1010.7hPa Calm   1.0mph /  1.6km/h 93% 0.00in /  0mm
01:15 43.7 °F /  6.5 °C 41.5 °F /  5.3 °C 29.84in /  1010.4hPa SSW 1.0mph /  1.6km/h 4.0mph /  6.4km/h 92% 0.00in /  0mm
01:20 43.6 °F /  6.4 °C 41.4 °F /  5.2 °C 29.84in /  1010.4hPa South 1.0mph /  1.6km/h 7.0mph /  11.3km/h 92% 0.00in /  0mm
01:25 43.6 °F /  6.4 °C 41.4 °F /  5.2 °C 29.84in /  1010.4hPa South 2.0mph /  3.2km/h 7.0mph /  11.3km/h 92% 0.00in /  0mm
01:30 43.5 °F /  6.4 °C 41.3 °F /  5.2 °C 29.84in /  1010.4hPa SSW 4.0mph /  6.4km/h 7.0mph /  11.3km/h 92% 0.00in /  0mm
01:35 43.4 °F /  6.3 °C 41.2 °F /  5.1 °C 29.84in /  1010.4hPa SSW 2.0mph /  3.2km/h 7.0mph /  11.3km/h 92% 0.00in /  0mm
01:40 43.2 °F /  6.2 °C 40.8 °F /  4.9 °C 29.84in /  1010.4hPa SSW 4.0mph /  6.4km/h 7.0mph /  11.3km/h 91% 0.00in /  0mm
01:45 43.0 °F /  6.1 °C 40.6 °F /  4.8 °C 29.84in /  1010.4hPa SSW 2.0mph /  3.2km/h 7.0mph /  11.3km/h 91% 0.00in /  0mm
01:50 42.9 °F /  6.1 °C 40.7 °F /  4.8 °C 29.84in /  1010.4hPa SSW 1.0mph /  1.6km/h 7.0mph /  11.3km/h 92% 0.00in /  0mm
01:55 42.7 °F /  5.9 °C 40.3 °F /  4.6 °C 29.84in /  1010.4hPa SSW 2.0mph /  3.2km/h 7.0mph /  11.3km/h 91% 0.00in /  0mm
02:00 42.7 °F /  5.9 °C 40.5 °F /  4.7 °C 29.84in /  1010.4hPa Calm   6.0mph /  9.7km/h 92% 0.00in /  0mm
02:05 42.5 °F /  5.8 °C 40.3 °F /  4.6 °C 29.83in /  1010hPa Calm   6.0mph /  9.7km/h 92% 0.00in /  0mm
02:10 42.1 °F /  5.6 °C 39.7 °F /  4.3 °C 29.84in /  1010.4hPa Calm   4.0mph /  6.4km/h 91% 0.00in /  0mm
02:15 41.7 °F /  5.4 °C 39.3 °F /  4.1 °C 29.84in /  1010.4hPa Calm   3.0mph /  4.8km/h 91% 0.00in /  0mm
02:20 41.8 °F /  5.4 °C 39.6 °F /  4.2 °C 29.84in /  1010.4hPa SSW 6.0mph /  9.7km/h 11.0mph /  17.7km/h 92% 0.00in /  0mm
02:25 42.7 °F /  5.9 °C 40.5 °F /  4.7 °C 29.84in /  1010.4hPa SW 4.0mph /  6.4km/h 11.0mph /  17.7km/h 92% 0.00in /  0mm
02:30 43.1 °F /  6.2 °C 40.9 °F /  4.9 °C 29.83in /  1010hPa SSW 2.0mph /  3.2km/h 11.0mph /  17.7km/h 92% 0.00in /  0mm
02:40 43.9 °F /  6.6 °C 41.7 °F /  5.4 °C 29.83in /  1010hPa WSW 4.0mph /  6.4km/h 10.0mph /  16.1km/h 92% 0.00in /  0mm
02:45 44.5 °F /  6.9 °C 41.8 °F /  5.4 °C 29.83in /  1010hPa SW 2.0mph /  3.2km/h 11.0mph /  17.7km/h 90% 0.00in /  0mm
02:50 45.0 °F /  7.2 °C 41.7 °F /  5.4 °C 29.83in /  1010hPa WSW 5.0mph /  8km/h 11.0mph /  17.7km/h 88% 0.00in /  0mm
02:55 45.8 °F /  7.7 °C 41.6 °F /  5.3 °C 29.83in /  1010hPa WSW 5.0mph /  8km/h 14.0mph /  22.5km/h 85% 0.00in /  0mm
03:00 46.4 °F /  8 °C 41.5 °F /  5.3 °C 29.83in /  1010hPa WSW 5.0mph /  8km/h 14.0mph /  22.5km/h 83% 0.00in /  0mm
03:05 46.5 °F /  8.1 °C 41.3 °F /  5.2 °C 29.84in /  1010.4hPa WSW 7.0mph /  11.3km/h 14.0mph /  22.5km/h 82% 0.00in /  0mm
03:10 46.7 °F /  8.2 °C 41.2 °F /  5.1 °C 29.84in /  1010.4hPa West 4.0mph /  6.4km/h 14.0mph /  22.5km/h 81% 0.00in /  0mm
03:15 46.7 °F /  8.2 °C 41.2 °F /  5.1 °C 29.84in /  1010.4hPa WSW 7.0mph /  11.3km/h 12.0mph /  19.3km/h 81% 0.00in /  0mm
03:20 46.7 °F /  8.2 °C 41.2 °F /  5.1 °C 29.83in /  1010hPa WSW 7.0mph /  11.3km/h 13.0mph /  20.9km/h 81% 0.00in /  0mm
03:25 46.7 °F /  8.2 °C 41.2 °F /  5.1 °C 29.83in /  1010hPa WSW 4.0mph /  6.4km/h 13.0mph /  20.9km/h 81% 0.00in /  0mm
03:30 46.6 °F /  8.1 °C 41.4 °F /  5.2 °C 29.83in /  1010hPa Calm   11.0mph /  17.7km/h 82% 0.00in /  0mm
03:40 46.3 °F /  7.9 °C 41.1 °F /  5.1 °C 29.83in /  1010hPa WSW 5.0mph /  8km/h 8.0mph /  12.9km/h 82% 0.00in /  0mm
03:45 46.4 °F /  8 °C 41.2 °F /  5.1 °C 29.83in /  1010hPa WSW 6.0mph /  9.7km/h 10.0mph /  16.1km/h 82% 0.00in /  0mm
03:50 46.3 °F /  7.9 °C 41.1 °F /  5.1 °C 29.83in /  1010hPa WSW 6.0mph /  9.7km/h 10.0mph /  16.1km/h 82% 0.00in /  0mm
03:55 46.2 °F /  7.9 °C 41.3 °F /  5.2 °C 29.82in /  1009.7hPa WSW 5.0mph /  8km/h 10.0mph /  16.1km/h 83% 0.00in /  0mm
04:00 46.2 °F /  7.9 °C 41.3 °F /  5.2 °C 29.83in /  1010hPa WSW 3.0mph /  4.8km/h 10.0mph /  16.1km/h 83% 0.00in /  0mm
04:05 46.1 °F /  7.8 °C 41.5 °F /  5.3 °C 29.83in /  1010hPa WSW 3.0mph /  4.8km/h 10.0mph /  16.1km/h 84% 0.00in /  0mm
04:10 46.1 °F /  7.8 °C 41.5 °F /  5.3 °C 29.83in /  1010hPa SW 5.0mph /  8km/h 11.0mph /  17.7km/h 84% 0.00in /  0mm
04:15 46.2 °F /  7.9 °C 41.3 °F /  5.2 °C 29.83in /  1010hPa WSW 4.0mph /  6.4km/h 12.0mph /  19.3km/h 83% 0.00in /  0mm
04:20 46.2 °F /  7.9 °C 41.3 °F /  5.2 °C 29.83in /  1010hPa WSW 6.0mph /  9.7km/h 12.0mph /  19.3km/h 83% 0.00in /  0mm
04:25 46.2 °F /  7.9 °C 41.0 °F /  5 °C 29.83in /  1010hPa WSW 6.0mph /  9.7km/h 12.0mph /  19.3km/h 82% 0.00in /  0mm
04:30 46.3 °F /  7.9 °C 41.1 °F /  5.1 °C 29.83in /  1010hPa WSW 3.0mph /  4.8km/h 12.0mph /  19.3km/h 82% 0.00in /  0mm
04:35 46.3 °F /  7.9 °C 41.1 °F /  5.1 °C 29.83in /  1010hPa WSW 4.0mph /  6.4km/h 11.0mph /  17.7km/h 82% 0.00in /  0mm
04:40 46.2 °F /  7.9 °C 41.0 °F /  5 °C 29.83in /  1010hPa WSW 3.0mph /  4.8km/h 10.0mph /  16.1km/h 82% 0.00in /  0mm
04:45 46.2 °F /  7.9 °C 41.0 °F /  5 °C 29.83in /  1010hPa West 5.0mph /  8km/h 10.0mph /  16.1km/h 82% 0.00in /  0mm
04:50 46.3 °F /  7.9 °C 41.1 °F /  5.1 °C 29.84in /  1010.4hPa West 5.0mph /  8km/h 10.0mph /  16.1km/h 82% 0.00in /  0mm
04:55 46.4 °F /  8 °C 41.2 °F /  5.1 °C 29.84in /  1010.4hPa WSW 3.0mph /  4.8km/h 12.0mph /  19.3km/h 82% 0.00in /  0mm
05:00 46.3 °F /  7.9 °C 41.1 °F /  5.1 °C 29.84in /  1010.4hPa WSW 5.0mph /  8km/h 12.0mph /  19.3km/h 82% 0.00in /  0mm
05:05 46.3 °F /  7.9 °C 41.4 °F /  5.2 °C 29.84in /  1010.4hPa West 3.0mph /  4.8km/h 12.0mph /  19.3km/h 83% 0.00in /  0mm
05:10 46.3 °F /  7.9 °C 41.4 °F /  5.2 °C 29.84in /  1010.4hPa SW 4.0mph /  6.4km/h 12.0mph /  19.3km/h 83% 0.00in /  0mm
05:15 46.2 °F /  7.9 °C 41.3 °F /  5.2 °C 29.84in /  1010.4hPa WSW 4.0mph /  6.4km/h 11.0mph /  17.7km/h 83% 0.00in /  0mm
05:20 46.2 °F /  7.9 °C 41.3 °F /  5.2 °C 29.84in /  1010.4hPa WSW 2.0mph /  3.2km/h 9.0mph /  14.5km/h 83% 0.00in /  0mm
05:25 46.1 °F /  7.8 °C 41.2 °F /  5.1 °C 29.84in /  1010.4hPa WSW 4.0mph /  6.4km/h 9.0mph /  14.5km/h 83% 0.00in /  0mm
05:30 46.1 °F /  7.8 °C 40.9 °F /  4.9 °C 29.84in /  1010.4hPa WNW 6.0mph /  9.7km/h 10.0mph /  16.1km/h 82% 0.00in /  0mm
05:40 46.1 °F /  7.8 °C 40.9 °F /  4.9 °C 29.84in /  1010.4hPa West 3.0mph /  4.8km/h 11.0mph /  17.7km/h 82% 0.00in /  0mm
05:45 46.1 °F /  7.8 °C 40.9 °F /  4.9 °C 29.84in /  1010.4hPa West 5.0mph /  8km/h 12.0mph /  19.3km/h 82% 0.00in /  0mm
05:55 46.2 °F /  7.9 °C 40.7 °F /  4.8 °C 29.85in /  1010.7hPa West 4.0mph /  6.4km/h 10.0mph /  16.1km/h 81% 0.00in /  0mm
06:00 46.2 °F /  7.9 °C 40.4 °F /  4.7 °C 29.85in /  1010.7hPa West 6.0mph /  9.7km/h 10.0mph /  16.1km/h 80% 0.00in /  0mm
06:05 46.2 °F /  7.9 °C 40.7 °F /  4.8 °C 29.85in /  1010.7hPa WNW 4.0mph /  6.4km/h 10.0mph /  16.1km/h 81% 0.00in /  0mm
06:10 46.1 °F /  7.8 °C 40.6 °F /  4.8 °C 29.85in /  1010.7hPa West 4.0mph /  6.4km/h 10.0mph /  16.1km/h 81% 0.00in /  0mm
06:15 46.1 °F /  7.8 °C 40.3 °F /  4.6 °C 29.85in /  1010.7hPa West 3.0mph /  4.8km/h 8.0mph /  12.9km/h 80% 0.00in /  0mm
06:20 46.1 °F /  7.8 °C 40.3 °F /  4.6 °C 29.85in /  1010.7hPa West 1.0mph /  1.6km/h 8.0mph /  12.9km/h 80% 0.00in /  0mm
06:25 46.1 °F /  7.8 °C 40.3 °F /  4.6 °C 29.85in /  1010.7hPa West 6.0mph /  9.7km/h 11.0mph /  17.7km/h 80% 0.00in /  0mm
06:35 46.3 °F /  7.9 °C 40.1 °F /  4.5 °C 29.85in /  1010.7hPa WNW 4.0mph /  6.4km/h 11.0mph /  17.7km/h 79% 0.00in /  0mm
06:40 46.3 °F /  7.9 °C 40.1 °F /  4.5 °C 29.86in /  1011.1hPa West 4.0mph /  6.4km/h 11.0mph /  17.7km/h 79% 0.00in /  0mm
06:45 46.2 °F /  7.9 °C 40.4 °F /  4.7 °C 29.86in /  1011.1hPa WNW 2.0mph /  3.2km/h 7.0mph /  11.3km/h 80% 0.00in /  0mm
06:50 46.1 °F /  7.8 °C 40.3 °F /  4.6 °C 29.86in /  1011.1hPa West 2.0mph /  3.2km/h 7.0mph /  11.3km/h 80% 0.00in /  0mm
06:55 46.0 °F /  7.8 °C 40.2 °F /  4.6 °C 29.86in /  1011.1hPa West 3.0mph /  4.8km/h 7.0mph /  11.3km/h 80% 0.00in /  0mm
07:00 46.0 °F /  7.8 °C 40.2 °F /  4.6 °C 29.86in /  1011.1hPa WSW 3.0mph /  4.8km/h 6.0mph /  9.7km/h 80% 0.00in /  0mm
07:05 46.0 °F /  7.8 °C 40.2 °F /  4.6 °C 29.86in /  1011.1hPa West 2.0mph /  3.2km/h 8.0mph /  12.9km/h 80% 0.00in /  0mm
07:10 46.0 °F /  7.8 °C 40.2 °F /  4.6 °C 29.86in /  1011.1hPa West 2.0mph /  3.2km/h 8.0mph /  12.9km/h 80% 0.00in /  0mm
07:15 46.0 °F /  7.8 °C 40.5 °F /  4.7 °C 29.86in /  1011.1hPa WSW 1.0mph /  1.6km/h 6.0mph /  9.7km/h 81% 0.00in /  0mm
07:20 45.9 °F /  7.7 °C 40.4 °F /  4.7 °C 29.86in /  1011.1hPa WSW 4.0mph /  6.4km/h 10.0mph /  16.1km/h 81% 0.00in /  0mm
07:25 46.0 °F /  7.8 °C 40.5 °F /  4.7 °C 29.87in /  1011.4hPa WSW 6.0mph /  9.7km/h 10.0mph /  16.1km/h 81% 0.00in /  0mm
07:30 45.9 °F /  7.7 °C 40.4 °F /  4.7 °C 29.87in /  1011.4hPa WSW 6.0mph /  9.7km/h 11.0mph /  17.7km/h 81% 0.00in /  0mm
07:35 45.8 °F /  7.7 °C 40.3 °F /  4.6 °C 29.87in /  1011.4hPa WSW 4.0mph /  6.4km/h 11.0mph /  17.7km/h 81% 0.00in /  0mm
07:40 45.8 °F /  7.7 °C 40.3 °F /  4.6 °C 29.87in /  1011.4hPa West 5.0mph /  8km/h 11.0mph /  17.7km/h 81% 0.00in /  0mm
07:45 45.7 °F /  7.6 °C 40.5 °F /  4.7 °C 29.87in /  1011.4hPa West 2.0mph /  3.2km/h 11.0mph /  17.7km/h 82% 0.00in /  0mm
07:50 45.6 °F /  7.6 °C 40.4 °F /  4.7 °C 29.87in /  1011.4hPa West 4.0mph /  6.4km/h 10.0mph /  16.1km/h 82% 0.00in /  0mm
07:55 45.6 °F /  7.6 °C 40.4 °F /  4.7 °C 29.88in /  1011.7hPa WSW 6.0mph /  9.7km/h 11.0mph /  17.7km/h 82% 0.00in /  0mm
08:00 45.6 °F /  7.6 °C 40.7 °F /  4.8 °C 29.88in /  1011.7hPa West 4.0mph /  6.4km/h 11.0mph /  17.7km/h 83% 0.00in /  0mm
08:05 45.5 °F /  7.5 °C 40.6 °F /  4.8 °C 29.88in /  1011.7hPa WSW 5.0mph /  8km/h 8.0mph /  12.9km/h 83% 0.00in /  0mm
08:10 45.5 °F /  7.5 °C 40.6 °F /  4.8 °C 29.88in /  1011.7hPa WSW 6.0mph /  9.7km/h 12.0mph /  19.3km/h 83% 0.00in /  0mm
08:15 45.5 °F /  7.5 °C 40.6 °F /  4.8 °C 29.89in /  1012.1hPa WSW 3.0mph /  4.8km/h 12.0mph /  19.3km/h 83% 0.00in /  0mm
08:20 45.4 °F /  7.4 °C 40.5 °F /  4.7 °C 29.89in /  1012.1hPa West 3.0mph /  4.8km/h 11.0mph /  17.7km/h 83% 0.00in /  0mm
08:30 45.2 °F /  7.3 °C 40.7 °F /  4.8 °C 29.89in /  1012.1hPa WSW 5.0mph /  8km/h 14.0mph /  22.5km/h 84% 0.00in /  0mm
08:35 45.2 °F /  7.3 °C 40.7 °F /  4.8 °C 29.89in /  1012.1hPa WSW 3.0mph /  4.8km/h 11.0mph /  17.7km/h 84% 0.00in /  0mm
08:40 45.2 °F /  7.3 °C 40.7 °F /  4.8 °C 29.89in /  1012.1hPa WSW 3.0mph /  4.8km/h 11.0mph /  17.7km/h 84% 0.00in /  0mm
08:50 45.2 °F /  7.3 °C 41.0 °F /  5 °C 29.89in /  1012.1hPa West 6.0mph /  9.7km/h 12.0mph /  19.3km/h 85% 0.00in /  0mm
08:55 45.4 °F /  7.4 °C 40.9 °F /  4.9 °C 29.89in /  1012.1hPa West 6.0mph /  9.7km/h 12.0mph /  19.3km/h 84% 0.00in /  0mm
09:00 45.7 °F /  7.6 °C 41.1 °F /  5.1 °C 29.89in /  1012.1hPa West 3.0mph /  4.8km/h 12.0mph /  19.3km/h 84% 0.00in /  0mm
09:05 45.8 °F /  7.7 °C 40.9 °F /  4.9 °C 29.90in /  1012.4hPa West 7.0mph /  11.3km/h 11.0mph /  17.7km/h 83% 0.00in /  0mm
09:10 46.0 °F /  7.8 °C 41.4 °F /  5.2 °C 29.90in /  1012.4hPa WSW 4.0mph /  6.4km/h 11.0mph /  17.7km/h 84% 0.00in /  0mm
09:15 46.2 °F /  7.9 °C 41.3 °F /  5.2 °C 29.90in /  1012.4hPa WSW 3.0mph /  4.8km/h 11.0mph /  17.7km/h 83% 0.00in /  0mm
09:20 46.3 °F /  7.9 °C 41.1 °F /  5.1 °C 29.90in /  1012.4hPa WSW 4.0mph /  6.4km/h 8.0mph /  12.9km/h 82% 0.00in /  0mm
09:25 46.1 °F /  7.8 °C 40.6 °F /  4.8 °C 29.90in /  1012.4hPa WSW 6.0mph /  9.7km/h 10.0mph /  16.1km/h 81% 0.00in /  0mm
09:30 46.0 °F /  7.8 °C 40.5 °F /  4.7 °C 29.90in /  1012.4hPa WSW 6.0mph /  9.7km/h 11.0mph /  17.7km/h 81% 0.00in /  0mm
09:35 45.8 °F /  7.7 °C 40.3 °F /  4.6 °C 29.90in /  1012.4hPa West 4.0mph /  6.4km/h 12.0mph /  19.3km/h 81% 0.00in /  0mm
09:40 45.8 °F /  7.7 °C 40.6 °F /  4.8 °C 29.90in /  1012.4hPa WSW 4.0mph /  6.4km/h 12.0mph /  19.3km/h 82% 0.00in /  0mm
09:45 45.8 °F /  7.7 °C 40.6 °F /  4.8 °C 29.90in /  1012.4hPa WSW 4.0mph /  6.4km/h 9.0mph /  14.5km/h 82% 0.00in /  0mm
09:50 45.8 °F /  7.7 °C 40.3 °F /  4.6 °C 29.90in /  1012.4hPa West 3.0mph /  4.8km/h 9.0mph /  14.5km/h 81% 0.00in /  0mm
09:55 45.8 °F /  7.7 °C 39.7 °F /  4.3 °C 29.90in /  1012.4hPa West 6.0mph /  9.7km/h 8.0mph /  12.9km/h 79% 0.00in /  0mm
10:00 45.9 °F /  7.7 °C 39.8 °F /  4.3 °C 29.90in /  1012.4hPa WSW 5.0mph /  8km/h 8.0mph /  12.9km/h 79% 0.00in /  0mm
10:05 46.0 °F /  7.8 °C 39.5 °F /  4.2 °C 29.90in /  1012.4hPa West 5.0mph /  8km/h 8.0mph /  12.9km/h 78% 0.00in /  0mm
10:10 46.1 °F /  7.8 °C 39.6 °F /  4.2 °C 29.90in /  1012.4hPa WNW 1.0mph /  1.6km/h 8.0mph /  12.9km/h 78% 0.00in /  0mm
10:15 46.3 °F /  7.9 °C 39.8 °F /  4.3 °C 29.90in /  1012.4hPa West 3.0mph /  4.8km/h 7.0mph /  11.3km/h 78% 0.00in /  0mm
10:20 46.5 °F /  8.1 °C 39.0 °F /  3.9 °C 29.90in /  1012.4hPa WNW 6.0mph /  9.7km/h 17.0mph /  27.4km/h 75% 0.00in /  0mm
10:25 46.8 °F /  8.2 °C 37.9 °F /  3.3 °C 29.90in /  1012.4hPa WNW 10.0mph /  16.1km/h 18.0mph /  29km/h 71% 0.00in /  0mm
10:30 46.9 °F /  8.3 °C 37.6 °F /  3.1 °C 29.90in /  1012.4hPa WNW 8.0mph /  12.9km/h 18.0mph /  29km/h 70% 0.00in /  0mm
10:35 47.2 °F /  8.4 °C 37.9 °F /  3.3 °C 29.90in /  1012.4hPa WNW 7.0mph /  11.3km/h 13.0mph /  20.9km/h 70% 0.00in /  0mm
10:45 47.1 °F /  8.4 °C 37.5 °F /  3.1 °C 29.90in /  1012.4hPa West 9.0mph /  14.5km/h 14.0mph /  22.5km/h 69% 0.00in /  0mm
10:55 47.2 °F /  8.4 °C 37.2 °F /  2.9 °C 29.91in /  1012.8hPa WNW 13.0mph /  20.9km/h 20.0mph /  32.2km/h 68% 0.00in /  0mm
11:05 48.4 °F /  9.1 °C 36.4 °F /  2.4 °C 29.91in /  1012.8hPa WNW 11.0mph /  17.7km/h 19.0mph /  30.6km/h 63% 0.00in /  0mm
11:10 48.6 °F /  9.2 °C 36.6 °F /  2.6 °C 29.90in /  1012.4hPa WNW 8.0mph /  12.9km/h 17.0mph /  27.4km/h 63% 0.00in /  0mm
11:15 48.2 °F /  9 °C 36.6 °F /  2.6 °C 29.90in /  1012.4hPa WNW 9.0mph /  14.5km/h 16.0mph /  25.7km/h 64% 0.00in /  0mm
11:25 47.3 °F /  8.5 °C 35.3 °F /  1.8 °C 29.90in /  1012.4hPa NW 9.0mph /  14.5km/h 21.0mph /  33.8km/h 63% 0.00in /  0mm
11:30 47.5 °F /  8.6 °C 35.9 °F /  2.2 °C 29.90in /  1012.4hPa WNW 7.0mph /  11.3km/h 17.0mph /  27.4km/h 64% 0.00in /  0mm
11:35 47.6 °F /  8.7 °C 35.6 °F /  2 °C 29.90in /  1012.4hPa WNW 10.0mph /  16.1km/h 14.0mph /  22.5km/h 63% 0.00in /  0mm
11:40 47.5 °F /  8.6 °C 35.1 °F /  1.7 °C 29.90in /  1012.4hPa WNW 11.0mph /  17.7km/h 18.0mph /  29km/h 62% 0.00in /  0mm
11:45 47.2 °F /  8.4 °C 34.4 °F /  1.3 °C 29.90in /  1012.4hPa WNW 9.0mph /  14.5km/h 18.0mph /  29km/h 61% 0.00in /  0mm
11:55 47.2 °F /  8.4 °C 34.9 °F /  1.6 °C 29.90in /  1012.4hPa NW 5.0mph /  8km/h 17.0mph /  27.4km/h 62% 0.00in /  0mm
12:00 47.4 °F /  8.6 °C 35.0 °F /  1.7 °C 29.90in /  1012.4hPa WNW 7.0mph /  11.3km/h 17.0mph /  27.4km/h 62% 0.00in /  0mm
12:05 48.2 °F /  9 °C 34.5 °F /  1.4 °C 29.90in /  1012.4hPa NW 9.0mph /  14.5km/h 16.0mph /  25.7km/h 59% 0.00in /  0mm
12:10 48.3 °F /  9.1 °C 35.1 °F /  1.7 °C 29.90in /  1012.4hPa WNW 7.0mph /  11.3km/h 16.0mph /  25.7km/h 60% 0.00in /  0mm
12:15 48.6 °F /  9.2 °C 35.8 °F /  2.1 °C 29.90in /  1012.4hPa WNW 8.0mph /  12.9km/h 17.0mph /  27.4km/h 61% 0.00in /  0mm
12:20 48.7 °F /  9.3 °C 35.0 °F /  1.7 °C 29.90in /  1012.4hPa WNW 8.0mph /  12.9km/h 17.0mph /  27.4km/h 59% 0.00in /  0mm
12:25 48.5 °F /  9.2 °C 35.3 °F /  1.8 °C 29.90in /  1012.4hPa WNW 6.0mph /  9.7km/h 14.0mph /  22.5km/h 60% 0.00in /  0mm
12:30 48.0 °F /  8.9 °C 34.8 °F /  1.6 °C 29.90in /  1012.4hPa NW 6.0mph /  9.7km/h 15.0mph /  24.1km/h 60% 0.00in /  0mm
12:35 47.8 °F /  8.8 °C 35.4 °F /  1.9 °C 29.90in /  1012.4hPa WNW 5.0mph /  8km/h 15.0mph /  24.1km/h 62% 0.00in /  0mm
12:40 47.5 °F /  8.6 °C 35.1 °F /  1.7 °C 29.90in /  1012.4hPa WNW 7.0mph /  11.3km/h 12.0mph /  19.3km/h 62% 0.00in /  0mm
12:45 47.2 °F /  8.4 °C 34.9 °F /  1.6 °C 29.90in /  1012.4hPa WNW 7.0mph /  11.3km/h 12.0mph /  19.3km/h 62% 0.00in /  0mm
12:50 47.0 °F /  8.3 °C 34.7 °F /  1.5 °C 29.90in /  1012.4hPa NW 6.0mph /  9.7km/h 12.0mph /  19.3km/h 62% 0.00in /  0mm
12:55 47.1 °F /  8.4 °C 35.2 °F /  1.8 °C 29.90in /  1012.4hPa NW 4.0mph /  6.4km/h 12.0mph /  19.3km/h 63% 0.00in /  0mm
13:00 47.3 °F /  8.5 °C 35.3 °F /  1.8 °C 29.90in /  1012.4hPa NW 5.0mph /  8km/h 9.0mph /  14.5km/h 63% 0.00in /  0mm
13:05 47.4 °F /  8.6 °C 35.4 °F /  1.9 °C 29.90in /  1012.4hPa NW 4.0mph /  6.4km/h 10.0mph /  16.1km/h 63% 0.00in /  0mm
13:10 47.7 °F /  8.7 °C 35.3 °F /  1.8 °C 29.90in /  1012.4hPa NW 5.0mph /  8km/h 10.0mph /  16.1km/h 62% 0.00in /  0mm
13:15 47.8 °F /  8.8 °C 35.8 °F /  2.1 °C 29.90in /  1012.4hPa NW 5.0mph /  8km/h 12.0mph /  19.3km/h 63% 0.00in /  0mm
13:20 47.7 °F /  8.7 °C 35.3 °F /  1.8 °C 29.89in /  1012.1hPa NW 3.0mph /  4.8km/h 12.0mph /  19.3km/h 62% 0.00in /  0mm
13:30 47.8 °F /  8.8 °C 35.4 °F /  1.9 °C 29.89in /  1012.1hPa NW 5.0mph /  8km/h 9.0mph /  14.5km/h 62% 0.00in /  0mm
13:35 47.8 °F /  8.8 °C 36.2 °F /  2.3 °C 29.89in /  1012.1hPa NNW 3.0mph /  4.8km/h 9.0mph /  14.5km/h 64% 0.00in /  0mm
13:40 47.8 °F /  8.8 °C 35.4 °F /  1.9 °C 29.89in /  1012.1hPa NW 7.0mph /  11.3km/h 14.0mph /  22.5km/h 62% 0.00in /  0mm
13:45 47.7 °F /  8.7 °C 35.7 °F /  2.1 °C 29.89in /  1012.1hPa NW 3.0mph /  4.8km/h 14.0mph /  22.5km/h 63% 0.00in /  0mm
13:55 47.2 °F /  8.4 °C 35.3 °F /  1.8 °C 29.89in /  1012.1hPa NNW 4.0mph /  6.4km/h 9.0mph /  14.5km/h 63% 0.00in /  0mm
14:00 47.2 °F /  8.4 °C 36.0 °F /  2.2 °C 29.89in /  1012.1hPa WNW 2.0mph /  3.2km/h 9.0mph /  14.5km/h 65% 0.00in /  0mm
14:05 47.2 °F /  8.4 °C 36.8 °F /  2.7 °C 29.88in /  1011.7hPa NNW 2.0mph /  3.2km/h 10.0mph /  16.1km/h 67% 0.00in /  0mm
14:10 47.2 °F /  8.4 °C 36.4 °F /  2.4 °C 29.89in /  1012.1hPa NNW 5.0mph /  8km/h 14.0mph /  22.5km/h 66% 0.00in /  0mm
14:15 47.2 °F /  8.4 °C 36.8 °F /  2.7 °C 29.89in /  1012.1hPa NW 3.0mph /  4.8km/h 14.0mph /  22.5km/h 67% 0.00in /  0mm
14:20 47.0 °F /  8.3 °C 36.6 °F /  2.6 °C 29.89in /  1012.1hPa NNW 5.0mph /  8km/h 14.0mph /  22.5km/h 67% 0.00in /  0mm
14:25 46.7 °F /  8.2 °C 36.7 °F /  2.6 °C 29.89in /  1012.1hPa NW 5.0mph /  8km/h 14.0mph /  22.5km/h 68% 0.00in /  0mm
14:30 46.5 °F /  8.1 °C 36.9 °F /  2.7 °C 29.89in /  1012.1hPa NW 7.0mph /  11.3km/h 14.0mph /  22.5km/h 69% 0.00in /  0mm
14:40 46.6 °F /  8.1 °C 37.0 °F /  2.8 °C 29.89in /  1012.1hPa WNW 6.0mph /  9.7km/h 13.0mph /  20.9km/h 69% 0.00in /  0mm
14:45 46.7 °F /  8.2 °C 37.1 °F /  2.8 °C 29.89in /  1012.1hPa WNW 7.0mph /  11.3km/h 13.0mph /  20.9km/h 69% 0.00in /  0mm
14:50 46.8 °F /  8.2 °C 37.5 °F /  3.1 °C 29.89in /  1012.1hPa NNW 5.0mph /  8km/h 13.0mph /  20.9km/h 70% 0.00in /  0mm
14:55 46.9 °F /  8.3 °C 37.6 °F /  3.1 °C 29.89in /  1012.1hPa NNW 8.0mph /  12.9km/h 15.0mph /  24.1km/h 70% 0.00in /  0mm
15:00 46.6 °F /  8.1 °C 37.7 °F /  3.2 °C 29.90in /  1012.4hPa NW 7.0mph /  11.3km/h 19.0mph /  30.6km/h 71% 0.00in /  0mm
15:05 46.1 °F /  7.8 °C 37.9 °F /  3.3 °C 29.90in /  1012.4hPa NW 7.0mph /  11.3km/h 19.0mph /  30.6km/h 73% 0.00in /  0mm
15:10 45.4 °F /  7.4 °C 38.3 °F /  3.5 °C 29.90in /  1012.4hPa WNW 5.0mph /  8km/h 18.0mph /  29km/h 76% 0.00in /  0mm
15:15 45.2 °F /  7.3 °C 37.4 °F /  3 °C 29.90in /  1012.4hPa NW 8.0mph /  12.9km/h 14.0mph /  22.5km/h 74% 0.00in /  0mm
15:20 45.7 °F /  7.6 °C 37.2 °F /  2.9 °C 29.90in /  1012.4hPa NNW 7.0mph /  11.3km/h 14.0mph /  22.5km/h 72% 0.00in /  0mm
15:25 46.2 °F /  7.9 °C 36.6 °F /  2.6 °C 29.90in /  1012.4hPa NW 8.0mph /  12.9km/h 18.0mph /  29km/h 69% 0.00in /  0mm
15:30 46.3 °F /  7.9 °C 36.3 °F /  2.4 °C 29.90in /  1012.4hPa NW 7.0mph /  11.3km/h 18.0mph /  29km/h 68% 0.00in /  0mm
15:35 46.5 °F /  8.1 °C 36.1 °F /  2.3 °C 29.90in /  1012.4hPa NW 5.0mph /  8km/h 16.0mph /  25.7km/h 67% 0.00in /  0mm
15:40 46.5 °F /  8.1 °C 35.8 °F /  2.1 °C 29.90in /  1012.4hPa NW 6.0mph /  9.7km/h 14.0mph /  22.5km/h 66% 0.00in /  0mm
15:45 46.4 °F /  8 °C 34.9 °F /  1.6 °C 29.90in /  1012.4hPa NW 9.0mph /  14.5km/h 16.0mph /  25.7km/h 64% 0.00in /  0mm
15:55 46.1 °F /  7.8 °C 34.2 °F /  1.2 °C 29.91in /  1012.8hPa NW 5.0mph /  8km/h 16.0mph /  25.7km/h 63% 0.00in /  0mm
16:00 46.1 °F /  7.8 °C 34.2 °F /  1.2 °C 29.91in /  1012.8hPa NW 6.0mph /  9.7km/h 15.0mph /  24.1km/h 63% 0.00in /  0mm
16:05 46.0 °F /  7.8 °C 34.5 °F /  1.4 °C 29.91in /  1012.8hPa WNW 3.0mph /  4.8km/h 15.0mph /  24.1km/h 64% 0.00in /  0mm
16:10 46.0 °F /  7.8 °C 34.1 °F /  1.2 °C 29.91in /  1012.8hPa NW 5.0mph /  8km/h 15.0mph /  24.1km/h 63% 0.00in /  0mm
16:15 46.0 °F /  7.8 °C 34.1 °F /  1.2 °C 29.91in /  1012.8hPa NW 6.0mph /  9.7km/h 15.0mph /  24.1km/h 63% 0.00in /  0mm
16:20 46.3 °F /  7.9 °C 34.4 °F /  1.3 °C 29.91in /  1012.8hPa WNW 5.0mph /  8km/h 11.0mph /  17.7km/h 63% 0.00in /  0mm
16:25 46.9 °F /  8.3 °C 34.2 °F /  1.2 °C 29.91in /  1012.8hPa WNW 8.0mph /  12.9km/h 15.0mph /  24.1km/h 61% 0.00in /  0mm
16:30 46.7 °F /  8.2 °C 33.6 °F /  0.9 °C 29.91in /  1012.8hPa NW 6.0mph /  9.7km/h 15.0mph /  24.1km/h 60% 0.00in /  0mm
16:35 46.4 °F /  8 °C 33.7 °F /  0.9 °C 29.91in /  1012.8hPa NW 7.0mph /  11.3km/h 15.0mph /  24.1km/h 61% 0.00in /  0mm
16:40 46.2 °F /  7.9 °C 33.5 °F /  0.8 °C 29.91in /  1012.8hPa NW 7.0mph /  11.3km/h 17.0mph /  27.4km/h 61% 0.00in /  0mm
16:45 46.0 °F /  7.8 °C 33.3 °F /  0.7 °C 29.92in /  1013.1hPa WNW 6.0mph /  9.7km/h 17.0mph /  27.4km/h 61% 0.00in /  0mm
16:55 45.8 °F /  7.7 °C 33.5 °F /  0.8 °C 29.92in /  1013.1hPa WNW 5.0mph /  8km/h 12.0mph /  19.3km/h 62% 0.00in /  0mm
17:00 45.9 °F /  7.7 °C 33.6 °F /  0.9 °C 29.92in /  1013.1hPa WNW 6.0mph /  9.7km/h 13.0mph /  20.9km/h 62% 0.00in /  0mm
17:05 46.0 °F /  7.8 °C 34.1 °F /  1.2 °C 29.92in /  1013.1hPa WNW 5.0mph /  8km/h 13.0mph /  20.9km/h 63% 0.00in /  0mm
17:10 46.5 °F /  8.1 °C 33.8 °F /  1 °C 29.92in /  1013.1hPa NW 6.0mph /  9.7km/h 9.0mph /  14.5km/h 61% 0.00in /  0mm
17:15 46.6 °F /  8.1 °C 33.9 °F /  1.1 °C 29.93in /  1013.4hPa NW 6.0mph /  9.7km/h 10.0mph /  16.1km/h 61% 0.00in /  0mm
17:20 46.6 °F /  8.1 °C 33.9 °F /  1.1 °C 29.93in /  1013.4hPa WNW 4.0mph /  6.4km/h 10.0mph /  16.1km/h 61% 0.00in /  0mm
17:25 46.6 °F /  8.1 °C 33.9 °F /  1.1 °C 29.93in /  1013.4hPa WNW 4.0mph /  6.4km/h 11.0mph /  17.7km/h 61% 0.00in /  0mm
17:30 46.4 °F /  8 °C 33.7 °F /  0.9 °C 29.93in /  1013.4hPa WNW 7.0mph /  11.3km/h 13.0mph /  20.9km/h 61% 0.00in /  0mm
17:35 46.1 °F /  7.8 °C 33.4 °F /  0.8 °C 29.93in /  1013.4hPa NW 5.0mph /  8km/h 13.0mph /  20.9km/h 61% 0.00in /  0mm
17:40 45.7 °F /  7.6 °C 33.4 °F /  0.8 °C 29.94in /  1013.8hPa NW 4.0mph /  6.4km/h 15.0mph /  24.1km/h 62% 0.00in /  0mm
17:45 45.4 °F /  7.4 °C 33.1 °F /  0.6 °C 29.94in /  1013.8hPa WNW 2.0mph /  3.2km/h 15.0mph /  24.1km/h 62% 0.00in /  0mm
17:50 45.2 °F /  7.3 °C 33.4 °F /  0.8 °C 29.94in /  1013.8hPa WNW 2.0mph /  3.2km/h 14.0mph /  22.5km/h 63% 0.00in /  0mm
17:55 45.0 °F /  7.2 °C 33.2 °F /  0.7 °C 29.94in /  1013.8hPa WNW 3.0mph /  4.8km/h 14.0mph /  22.5km/h 63% 0.00in /  0mm
18:00 44.9 °F /  7.2 °C 33.5 °F /  0.8 °C 29.94in /  1013.8hPa WNW 5.0mph /  8km/h 8.0mph /  12.9km/h 64% 0.00in /  0mm
18:05 44.6 °F /  7 °C 33.6 °F /  0.9 °C 29.94in /  1013.8hPa Calm   7.0mph /  11.3km/h 65% 0.00in /  0mm
18:10 44.5 °F /  6.9 °C 33.5 °F /  0.8 °C 29.95in /  1014.1hPa Calm   7.0mph /  11.3km/h 65% 0.00in /  0mm
18:15 44.4 °F /  6.9 °C 33.4 °F /  0.8 °C 29.95in /  1014.1hPa West 2.0mph /  3.2km/h 7.0mph /  11.3km/h 65% 0.00in /  0mm
18:20 44.5 °F /  6.9 °C 33.5 °F /  0.8 °C 29.95in /  1014.1hPa Calm   6.0mph /  9.7km/h 65% 0.00in /  0mm
18:25 44.4 °F /  6.9 °C 33.8 °F /  1 °C 29.96in /  1014.4hPa NW 1.0mph /  1.6km/h 5.0mph /  8km/h 66% 0.00in /  0mm
18:30 44.3 °F /  6.8 °C 33.7 °F /  0.9 °C 29.95in /  1014.1hPa Calm   6.0mph /  9.7km/h 66% 0.00in /  0mm
18:35 44.2 °F /  6.8 °C 33.2 °F /  0.7 °C 29.95in /  1014.1hPa NW 4.0mph /  6.4km/h 9.0mph /  14.5km/h 65% 0.00in /  0mm
18:40 43.9 °F /  6.6 °C 33.3 °F /  0.7 °C 29.96in /  1014.4hPa WSW 2.0mph /  3.2km/h 9.0mph /  14.5km/h 66% 0.00in /  0mm
18:45 43.4 °F /  6.3 °C 33.2 °F /  0.7 °C 29.96in /  1014.4hPa Calm   5.0mph /  8km/h 67% 0.00in /  0mm
18:50 42.8 °F /  6 °C 33.0 °F /  0.6 °C 29.96in /  1014.4hPa Calm   1.0mph /  1.6km/h 68% 0.00in /  0mm
18:55 42.4 °F /  5.8 °C 32.6 °F /  0.3 °C 29.96in /  1014.4hPa Calm   1.0mph /  1.6km/h 68% 0.00in /  0mm
19:00 41.8 °F /  5.4 °C 32.4 °F /  0.2 °C 29.96in /  1014.4hPa Calm   4.0mph /  6.4km/h 69% 0.00in /  0mm
19:05 41.4 °F /  5.2 °C 32.4 °F /  0.2 °C 29.96in /  1014.4hPa Calm   4.0mph /  6.4km/h 70% 0.00in /  0mm
19:10 41.5 °F /  5.3 °C 32.1 °F /  0.1 °C 29.96in /  1014.4hPa West 2.0mph /  3.2km/h 4.0mph /  6.4km/h 69% 0.00in /  0mm
19:15 41.5 °F /  5.3 °C 32.1 °F /  0.1 °C 29.96in /  1014.4hPa Calm   4.0mph /  6.4km/h 69% 0.00in /  0mm
19:20 41.3 °F /  5.2 °C 32.3 °F /  0.2 °C 29.96in /  1014.4hPa Calm   3.0mph /  4.8km/h 70% 0.00in /  0mm
19:25 41.0 °F /  5 °C 32.0 °F /  0 °C 29.96in /  1014.4hPa Calm   1.0mph /  1.6km/h 70% 0.00in /  0mm
19:30 40.9 °F /  4.9 °C 32.2 °F /  0.1 °C 29.96in /  1014.4hPa West 1.0mph /  1.6km/h 4.0mph /  6.4km/h 71% 0.00in /  0mm
19:35 40.7 °F /  4.8 °C 32.0 °F /  0 °C 29.96in /  1014.4hPa Calm   4.0mph /  6.4km/h 71% 0.00in /  0mm
19:40 40.5 °F /  4.7 °C 32.2 °F /  0.1 °C 29.96in /  1014.4hPa Calm   4.0mph /  6.4km/h 72% 0.00in /  0mm
19:45 40.5 °F /  4.7 °C 31.8 °F /  -0.1 °C 29.96in /  1014.4hPa Calm   4.0mph /  6.4km/h 71% 0.00in /  0mm
19:50 40.2 °F /  4.6 °C 31.9 °F /  -0.1 °C 29.97in /  1014.8hPa Calm   3.0mph /  4.8km/h 72% 0.00in /  0mm
19:55 39.6 °F /  4.2 °C 31.7 °F /  -0.2 °C 29.97in /  1014.8hPa Calm   1.0mph /  1.6km/h 73% 0.00in /  0mm
20:00 39.4 °F /  4.1 °C 31.8 °F /  -0.1 °C 29.97in /  1014.8hPa Calm   2.0mph /  3.2km/h 74% 0.00in /  0mm
20:05 39.3 °F /  4.1 °C 31.7 °F /  -0.2 °C 29.97in /  1014.8hPa SSW 1.0mph /  1.6km/h 3.0mph /  4.8km/h 74% 0.00in /  0mm
20:10 39.3 °F /  4.1 °C 31.7 °F /  -0.2 °C 29.97in /  1014.8hPa Calm   3.0mph /  4.8km/h 74% 0.00in /  0mm
20:15 39.0 °F /  3.9 °C 31.8 °F /  -0.1 °C 29.97in /  1014.8hPa Calm     75% 0.00in /  0mm
20:20 38.6 °F /  3.7 °C 31.4 °F /  -0.3 °C 29.97in /  1014.8hPa Calm     75% 0.00in /  0mm
20:25 38.3 °F /  3.5 °C 31.4 °F /  -0.3 °C 29.97in /  1014.8hPa Calm   1.0mph /  1.6km/h 76% 0.00in /  0mm
20:30 38.2 °F /  3.4 °C 31.6 °F /  -0.2 °C 29.97in /  1014.8hPa Calm   2.0mph /  3.2km/h 77% 0.00in /  0mm
20:35 38.2 °F /  3.4 °C 31.6 °F /  -0.2 °C 29.97in /  1014.8hPa WNW 2.0mph /  3.2km/h 7.0mph /  11.3km/h 77% 0.00in /  0mm
20:40 38.8 °F /  3.8 °C 32.2 °F /  0.1 °C 29.97in /  1014.8hPa WNW 3.0mph /  4.8km/h 7.0mph /  11.3km/h 77% 0.00in /  0mm
20:45 39.3 °F /  4.1 °C 32.4 °F /  0.2 °C 29.97in /  1014.8hPa WNW 1.0mph /  1.6km/h 7.0mph /  11.3km/h 76% 0.00in /  0mm
20:50 39.8 °F /  4.3 °C 32.5 °F /  0.3 °C 29.97in /  1014.8hPa West 1.0mph /  1.6km/h 6.0mph /  9.7km/h 75% 0.00in /  0mm
20:55 40.2 °F /  4.6 °C 32.9 °F /  0.5 °C 29.97in /  1014.8hPa WNW 4.0mph /  6.4km/h 9.0mph /  14.5km/h 75% 0.00in /  0mm
21:00 40.6 °F /  4.8 °C 33.0 °F /  0.6 °C 29.98in /  1015.1hPa WNW 2.0mph /  3.2km/h 9.0mph /  14.5km/h 74% 0.00in /  0mm
21:05 40.7 °F /  4.8 °C 33.1 °F /  0.6 °C 29.98in /  1015.1hPa WNW 6.0mph /  9.7km/h 11.0mph /  17.7km/h 74% 0.00in /  0mm
21:10 41.0 °F /  5 °C 33.4 °F /  0.8 °C 29.97in /  1014.8hPa WNW 3.0mph /  4.8km/h 11.0mph /  17.7km/h 74% 0.00in /  0mm
21:15 40.9 °F /  4.9 °C 33.3 °F /  0.7 °C 29.97in /  1014.8hPa WNW 3.0mph /  4.8km/h 7.0mph /  11.3km/h 74% 0.00in /  0mm
21:20 41.0 °F /  5 °C 33.4 °F /  0.8 °C 29.97in /  1014.8hPa WNW 3.0mph /  4.8km/h 8.0mph /  12.9km/h 74% 0.00in /  0mm
21:25 40.9 °F /  4.9 °C 32.9 °F /  0.5 °C 29.97in /  1014.8hPa WNW 1.0mph /  1.6km/h 8.0mph /  12.9km/h 73% 0.00in /  0mm
21:30 40.7 °F /  4.8 °C 33.1 °F /  0.6 °C 29.97in /  1014.8hPa WNW 4.0mph /  6.4km/h 7.0mph /  11.3km/h 74% 0.00in /  0mm
21:35 40.9 °F /  4.9 °C 32.9 °F /  0.5 °C 29.97in /  1014.8hPa WNW 4.0mph /  6.4km/h 11.0mph /  17.7km/h 73% 0.00in /  0mm
21:40 41.1 °F /  5.1 °C 33.1 °F /  0.6 °C 29.97in /  1014.8hPa NW 4.0mph /  6.4km/h 12.0mph /  19.3km/h 73% 0.00in /  0mm
21:45 41.2 °F /  5.1 °C 32.9 °F /  0.5 °C 29.97in /  1014.8hPa NW 3.0mph /  4.8km/h 12.0mph /  19.3km/h 72% 0.00in /  0mm
21:50 41.1 °F /  5.1 °C 32.8 °F /  0.4 °C 29.97in /  1014.8hPa West 2.0mph /  3.2km/h 7.0mph /  11.3km/h 72% 0.00in /  0mm
21:55 40.9 °F /  4.9 °C 32.9 °F /  0.5 °C 29.97in /  1014.8hPa NW 3.0mph /  4.8km/h 10.0mph /  16.1km/h 73% 0.00in /  0mm
22:00 40.9 °F /  4.9 °C 32.6 °F /  0.3 °C 29.97in /  1014.8hPa WNW 5.0mph /  8km/h 10.0mph /  16.1km/h 72% 0.00in /  0mm
22:05 40.9 °F /  4.9 °C 32.6 °F /  0.3 °C 29.97in /  1014.8hPa NW 4.0mph /  6.4km/h 9.0mph /  14.5km/h 72% 0.00in /  0mm
22:10 40.9 °F /  4.9 °C 32.6 °F /  0.3 °C 29.97in /  1014.8hPa NW 1.0mph /  1.6km/h 9.0mph /  14.5km/h 72% 0.00in /  0mm
22:15 40.8 °F /  4.9 °C 32.5 °F /  0.3 °C 29.97in /  1014.8hPa Calm   6.0mph /  9.7km/h 72% 0.00in /  0mm
22:20 40.6 °F /  4.8 °C 32.6 °F /  0.3 °C 29.97in /  1014.8hPa NW 2.0mph /  3.2km/h 6.0mph /  9.7km/h 73% 0.00in /  0mm
22:25 40.5 °F /  4.7 °C 32.5 °F /  0.3 °C 29.96in /  1014.4hPa NW 1.0mph /  1.6km/h 6.0mph /  9.7km/h 73% 0.00in /  0mm
22:30 40.4 °F /  4.7 °C 32.4 °F /  0.2 °C 29.96in /  1014.4hPa NW 1.0mph /  1.6km/h 6.0mph /  9.7km/h 73% 0.00in /  0mm
22:35 40.2 °F /  4.6 °C 32.6 °F /  0.3 °C 29.96in /  1014.4hPa Calm   6.0mph /  9.7km/h 74% 0.00in /  0mm
22:40 40.0 °F /  4.4 °C 32.4 °F /  0.2 °C 29.96in /  1014.4hPa NW 1.0mph /  1.6km/h 6.0mph /  9.7km/h 74% 0.00in /  0mm
22:45 39.9 °F /  4.4 °C 32.3 °F /  0.2 °C 29.96in /  1014.4hPa Calm   8.0mph /  12.9km/h 74% 0.00in /  0mm
22:50 39.8 °F /  4.3 °C 32.2 °F /  0.1 °C 29.96in /  1014.4hPa NW 1.0mph /  1.6km/h 8.0mph /  12.9km/h 74% 0.00in /  0mm
22:55 39.7 °F /  4.3 °C 32.1 °F /  0.1 °C 29.96in /  1014.4hPa WNW 2.0mph /  3.2km/h 7.0mph /  11.3km/h 74% 0.00in /  0mm
23:00 39.7 °F /  4.3 °C 32.1 °F /  0.1 °C 29.96in /  1014.4hPa NW 2.0mph /  3.2km/h 6.0mph /  9.7km/h 74% 0.00in /  0mm
23:05 39.6 °F /  4.2 °C 32.0 °F /  0 °C 29.96in /  1014.4hPa Calm   6.0mph /  9.7km/h 74% 0.00in /  0mm
23:10 39.3 °F /  4.1 °C 32.0 °F /  0 °C 29.96in /  1014.4hPa Calm   3.0mph /  4.8km/h 75% 0.00in /  0mm
23:15 39.2 °F /  4 °C 31.9 °F /  -0.1 °C 29.96in /  1014.4hPa Calm   3.0mph /  4.8km/h 75% 0.00in /  0mm
23:20 39.0 °F /  3.9 °C 31.8 °F /  -0.1 °C 29.96in /  1014.4hPa Calm   3.0mph /  4.8km/h 75% 0.00in /  0mm
23:25 38.7 °F /  3.7 °C 31.8 °F /  -0.1 °C 29.96in /  1014.4hPa Calm   3.0mph /  4.8km/h 76% 0.00in /  0mm
23:30 38.5 °F /  3.6 °C 31.6 °F /  -0.2 °C 29.96in /  1014.4hPa NNW 1.0mph /  1.6km/h 5.0mph /  8km/h 76% 0.00in /  0mm
23:35 38.6 °F /  3.7 °C 32.0 °F /  0 °C 29.97in /  1014.8hPa NW 1.0mph /  1.6km/h 7.0mph /  11.3km/h 77% 0.00in /  0mm
23:40 38.7 °F /  3.7 °C 31.8 °F /  -0.1 °C 29.96in /  1014.4hPa NW 1.0mph /  1.6km/h 7.0mph /  11.3km/h 76% 0.00in /  0mm
23:45 38.8 °F /  3.8 °C 31.9 °F /  -0.1 °C 29.96in /  1014.4hPa NW 1.0mph /  1.6km/h 6.0mph /  9.7km/h 76% 0.00in /  0mm
23:50 38.9 °F /  3.8 °C 32.0 °F /  0 °C 29.96in /  1014.4hPa NNW 1.0mph /  1.6km/h 6.0mph /  9.7km/h 76% 0.00in /  0mm
23:55 38.8 °F /  3.8 °C 31.9 °F /  -0.1 °C 29.96in /  1014.4hPa NNW 1.0mph /  1.6km/h 6.0mph /  9.7km/h 76% 0.00in /  0mm
Westford Weather
Compliments of Weather Underground

 
 
Current Radar Loop:

Copyright © WestfordWeather.net 2007-2014. All rights reserved.